createdAt,value
2019-04-28T00:01:48.180Z,100890.40
2019-04-28T00:04:18.338Z,100898.14
2019-04-28T00:06:48.478Z,100897.99
2019-04-28T00:09:19.196Z,100891.08
2019-04-28T00:11:49.382Z,100893.13
2019-04-28T00:14:21.737Z,100894.37
2019-04-28T00:16:51.945Z,100897.55
2019-04-28T00:19:23.823Z,100901.06
2019-04-28T00:22:20.846Z,100897.58
2019-04-28T00:25:01.598Z,100900.98
2019-04-28T00:27:31.870Z,100897.87
2019-04-28T00:30:02.273Z,100903.25
2019-04-28T00:32:32.933Z,100903.51
2019-04-28T00:35:03.151Z,100903.13
2019-04-28T00:37:35.656Z,100906.42
2019-04-28T00:40:10.978Z,100906.53
2019-04-28T00:42:41.393Z,100906.34
2019-04-28T00:45:12.251Z,100902.89
2019-04-28T00:47:42.770Z,100909.95
2019-04-28T00:50:13.308Z,100907.26
2019-04-28T00:52:43.437Z,100906.02
2019-04-28T00:55:13.772Z,100913.07
2019-04-28T00:57:43.882Z,100907.50
2019-04-28T01:00:16.055Z,100908.66
2019-04-28T01:02:46.721Z,100906.27
2019-04-28T01:05:17.257Z,100913.04
2019-04-28T01:07:47.388Z,100903.62
2019-04-28T01:10:18.605Z,100911.31
2019-04-28T01:12:48.740Z,100910.67
2019-04-28T01:15:41.129Z,100913.15
2019-04-28T01:18:24.139Z,100912.02
2019-04-28T01:20:54.257Z,100910.13
2019-04-28T01:23:24.388Z,100914.38
2019-04-28T01:25:54.535Z,100910.94
2019-04-28T01:28:24.679Z,100913.64
2019-04-28T01:31:13.789Z,100914.02
2019-04-28T01:34:02.866Z,100910.36
2019-04-28T01:36:34.393Z,100913.16
2019-04-28T01:39:05.909Z,100916.00
2019-04-28T01:41:36.127Z,100914.06
2019-04-28T01:44:06.509Z,100916.75
2019-04-28T01:46:36.723Z,100919.71
2019-04-28T01:49:06.924Z,100922.40
2019-04-28T01:51:37.079Z,100921.75
2019-04-28T01:54:07.197Z,100923.47
2019-04-28T01:56:37.331Z,100933.74
2019-04-28T01:59:07.440Z,100935.67
2019-04-28T02:01:37.559Z,100944.05
2019-04-28T02:04:07.683Z,100936.84
2019-04-28T02:06:39.921Z,100935.44
2019-04-28T02:09:11.439Z,100946.13
2019-04-28T02:11:41.542Z,100941.30
2019-04-28T02:14:11.655Z,100950.47
2019-04-28T02:16:41.788Z,100947.33
2019-04-28T02:19:11.907Z,100942.09
2019-04-28T02:21:51.257Z,100953.81
2019-04-28T02:24:40.482Z,100949.33
2019-04-28T02:27:11.102Z,100948.19
2019-04-28T02:29:41.717Z,100957.14
2019-04-28T02:32:13.020Z,100946.88
2019-04-28T02:34:43.321Z,100950.15
2019-04-28T02:37:13.836Z,100953.80
2019-04-28T02:39:43.976Z,100947.28
2019-04-28T02:42:14.119Z,100965.41
2019-04-28T02:44:44.257Z,100968.77
2019-04-28T02:47:14.384Z,100966.27
2019-04-28T02:50:11.410Z,100973.08
2019-04-28T02:53:15.134Z,100971.46
2019-04-28T02:55:45.254Z,100976.08
2019-04-28T02:58:15.437Z,100974.44
2019-04-28T03:01:01.115Z,100993.08
2019-04-28T03:03:17.382Z,100976.66
2019-04-28T03:05:47.507Z,100989.33
2019-04-28T03:08:17.667Z,100991.25
2019-04-28T03:10:50.720Z,100992.41
2019-04-28T03:13:20.864Z,100985.87
2019-04-28T03:15:51.917Z,100990.20
2019-04-28T03:18:22.061Z,100991.45
2019-04-28T03:20:52.325Z,100985.31
2019-04-28T03:23:23.517Z,100994.31
2019-04-28T03:26:02.527Z,100988.17
2019-04-28T03:28:37.035Z,101010.72
2019-04-28T03:32:01.047Z,100999.95
2019-04-28T03:34:05.100Z,101007.64
2019-04-28T03:36:35.324Z,101016.18
2019-04-28T03:39:07.173Z,101005.83
2019-04-28T03:41:40.584Z,101016.18
2019-04-28T03:44:11.462Z,101014.27
2019-04-28T03:46:51.134Z,101015.03
2019-04-28T03:49:32.250Z,101026.26
2019-04-28T03:52:03.913Z,101021.26
2019-04-28T03:54:34.418Z,101026.81
2019-04-28T03:57:04.745Z,101036.31
2019-04-28T03:59:34.913Z,101024.03
2019-04-28T04:02:05.030Z,101046.08
2019-04-28T04:04:35.184Z,101042.83
2019-04-28T04:07:05.320Z,101050.91
2019-04-28T04:09:45.849Z,101061.44
2019-04-28T04:12:51.053Z,101057.02
2019-04-28T04:15:50.666Z,101065.58
2019-04-28T04:18:30.724Z,101060.59
2019-04-28T04:21:00.830Z,101065.30
2019-04-28T04:23:32.242Z,101061.66
2019-04-28T04:26:02.394Z,101065.58
2019-04-28T04:28:32.526Z,101072.30
2019-04-28T04:31:03.353Z,101057.14
2019-04-28T04:33:33.670Z,101083.70
2019-04-28T04:36:03.808Z,101064.03
2019-04-28T04:38:34.992Z,101063.47
2019-04-28T04:41:05.123Z,101068.44
2019-04-28T04:43:36.459Z,101077.06
2019-04-28T04:46:22.055Z,101065.72
2019-04-28T04:48:51.544Z,101074.85
2019-04-28T04:51:21.951Z,101080.59
2019-04-28T04:53:54.305Z,101071.84
2019-04-28T04:56:24.445Z,101093.80
2019-04-28T04:58:54.567Z,101081.20
2019-04-28T05:01:43.766Z,101086.86
2019-04-28T05:04:24.053Z,101087.97
2019-04-28T05:06:54.288Z,101095.52
2019-04-28T05:09:24.427Z,101096.38
2019-04-28T05:11:54.574Z,101093.75
2019-04-28T05:14:24.743Z,101093.64
2019-04-28T05:16:54.918Z,101087.14
2019-04-28T05:19:25.079Z,101104.00
2019-04-28T05:21:55.263Z,101100.23
2019-04-28T05:24:54.186Z,101111.12
2019-04-28T05:27:25.622Z,101108.42
2019-04-28T05:29:57.030Z,101107.01
2019-04-28T05:32:39.215Z,101109.27
2019-04-28T05:34:59.994Z,101104.96
2019-04-28T05:37:29.999Z,101113.79
2019-04-28T05:40:00.803Z,101115.48
2019-04-28T05:42:32.326Z,101127.85
2019-04-28T05:45:02.528Z,101119.18
2019-04-28T05:47:32.859Z,101124.41
2019-04-28T05:50:19.581Z,101125.86
2019-04-28T05:53:08.528Z,101133.51
2019-04-28T05:55:53.593Z,101125.50
2019-04-28T05:58:50.355Z,101128.52
2019-04-28T06:01:38.292Z,101143.95
2019-04-28T06:04:09.611Z,101131.02
2019-04-28T06:06:42.122Z,101141.62
2019-04-28T06:09:31.224Z,101142.95
2019-04-28T06:12:01.414Z,101132.93
2019-04-28T06:14:31.575Z,101144.16
2019-04-28T06:17:04.085Z,101145.67
2019-04-28T06:19:33.587Z,101152.87
2019-04-28T06:22:03.745Z,101154.34
2019-04-28T06:24:34.040Z,101166.88
2019-04-28T06:27:05.373Z,101168.48
2019-04-28T06:29:35.547Z,101178.44
2019-04-28T06:32:05.803Z,101177.34
2019-04-28T06:34:35.999Z,101180.73
2019-04-28T06:37:06.163Z,101185.16
2019-04-28T06:39:36.429Z,101195.77
2019-04-28T06:42:08.222Z,101201.05
2019-04-28T06:44:38.375Z,101197.36
2019-04-28T06:47:08.524Z,101195.73
2019-04-28T06:49:38.743Z,101206.45
2019-04-28T06:52:08.973Z,101197.23
2019-04-28T06:54:39.253Z,101200.56
2019-04-28T06:57:09.492Z,101202.51
2019-04-28T06:59:39.620Z,101204.11
2019-04-28T07:02:09.764Z,101210.36
2019-04-28T07:04:40.550Z,101212.81
2019-04-28T07:07:10.689Z,101213.77
2019-04-28T07:09:40.813Z,101220.48
2019-04-28T07:12:11.008Z,101219.75
2019-04-28T07:14:41.175Z,101228.52
2019-04-28T07:17:11.302Z,101228.94
2019-04-28T07:19:43.089Z,101246.47
2019-04-28T07:22:20.042Z,101236.67
2019-04-28T07:24:51.320Z,101234.86
2019-04-28T07:27:21.649Z,101238.22
2019-04-28T07:29:51.799Z,101243.47
2019-04-28T07:32:21.927Z,101250.13
2019-04-28T07:34:52.426Z,101249.64
2019-04-28T07:37:22.553Z,101257.52
2019-04-28T07:39:53.145Z,101257.20
2019-04-28T07:42:23.295Z,101250.92
2019-04-28T07:44:53.444Z,101266.83
2019-04-28T07:47:23.575Z,101260.66
2019-04-28T07:49:54.691Z,101266.31
2019-04-28T07:52:30.936Z,101265.31
2019-04-28T07:55:01.113Z,101272.34
2019-04-28T07:57:33.149Z,101270.34
2019-04-28T08:00:03.562Z,101271.98
2019-04-28T08:02:33.796Z,101269.77
2019-04-28T08:05:06.517Z,101264.22
2019-04-28T08:07:36.656Z,101284.77
2019-04-28T08:10:07.383Z,101284.03
2019-04-28T08:12:37.495Z,101283.48
2019-04-28T08:15:07.714Z,101277.78
2019-04-28T08:17:37.883Z,101293.02
2019-04-28T08:20:09.199Z,101288.63
2019-04-28T08:22:39.328Z,101292.40
2019-04-28T08:25:11.748Z,101307.69
2019-04-28T08:27:41.877Z,101303.16
2019-04-28T08:30:12.401Z,101307.38
2019-04-28T08:32:52.098Z,101312.19
2019-04-28T08:35:22.258Z,101322.94
2019-04-28T08:37:52.402Z,101331.66
2019-04-28T08:40:22.600Z,101331.06
2019-04-28T08:42:52.703Z,101344.81
2019-04-28T08:45:22.938Z,101338.73
2019-04-28T08:47:53.241Z,101351.74
2019-04-28T08:50:24.361Z,101355.20
2019-04-28T08:52:54.533Z,101365.73
2019-04-28T08:55:24.774Z,101370.82
2019-04-28T08:57:54.914Z,101374.48
2019-04-28T09:00:25.034Z,101384.29
2019-04-28T09:02:55.239Z,101382.64
2019-04-28T09:05:25.405Z,101378.41
2019-04-28T09:07:55.544Z,101380.38
2019-04-28T09:10:25.687Z,101390.81
2019-04-28T09:12:55.813Z,101388.40
2019-04-28T09:15:25.999Z,101391.23
2019-04-28T09:17:56.142Z,101410.24
2019-04-28T09:20:26.272Z,101405.30
2019-04-28T09:22:56.747Z,101415.75
2019-04-28T09:25:26.892Z,101403.13
2019-04-28T09:27:57.199Z,101409.95
2019-04-28T09:30:27.335Z,101402.58
2019-04-28T09:32:57.448Z,101408.83
2019-04-28T09:35:27.573Z,101412.69
2019-04-28T09:37:57.766Z,101421.23
2019-04-28T09:40:27.950Z,101416.71
2019-04-28T09:43:15.782Z,101415.28
2019-04-28T09:45:50.264Z,101416.77
2019-04-28T09:48:20.442Z,101415.30
2019-04-28T09:50:50.556Z,101426.72
2019-04-28T09:53:20.790Z,101427.13
2019-04-28T09:55:51.020Z,101423.84
2019-04-28T09:58:21.145Z,101432.34
2019-04-28T10:00:51.286Z,101445.97
2019-04-28T10:03:21.407Z,101435.59
2019-04-28T10:05:51.534Z,101434.48
2019-04-28T10:08:21.726Z,101434.09
2019-04-28T10:10:51.891Z,101442.67
2019-04-28T10:13:22.069Z,101434.26
2019-04-28T10:15:52.302Z,101436.15
2019-04-28T10:18:22.451Z,101441.22
2019-04-28T10:20:52.600Z,101447.00
2019-04-28T10:23:22.800Z,101447.05
2019-04-28T10:25:52.913Z,101436.81
2019-04-28T10:28:23.185Z,101434.30
2019-04-28T10:30:53.334Z,101439.52
2019-04-28T10:33:23.674Z,101438.34
2019-04-28T10:35:53.797Z,101438.34
2019-04-28T10:38:23.914Z,101446.44
2019-04-28T10:40:59.741Z,101448.73
2019-04-28T10:43:29.858Z,101448.16
2019-04-28T10:46:00.605Z,101451.59
2019-04-28T10:48:31.403Z,101466.22
2019-04-28T10:51:01.535Z,101463.70
2019-04-28T10:53:31.687Z,101463.45
2019-04-28T10:56:01.853Z,101465.73
2019-04-28T10:58:31.990Z,101466.74
2019-04-28T11:01:02.240Z,101464.95
2019-04-28T11:03:32.436Z,101463.70
2019-04-28T11:06:02.623Z,101464.85
2019-04-28T11:09:11.292Z,101468.51
2019-04-28T11:11:41.941Z,101464.08
2019-04-28T11:14:14.183Z,101478.34
2019-04-28T11:16:44.020Z,101478.64
2019-04-28T11:19:14.179Z,101477.55
2019-04-28T11:21:44.729Z,101477.66
2019-04-28T11:24:14.975Z,101466.30
2019-04-28T11:26:45.107Z,101479.56
2019-04-28T11:29:15.206Z,101481.52
2019-04-28T11:31:45.365Z,101496.99
2019-04-28T11:34:27.575Z,101487.89
2019-04-28T11:36:58.844Z,101500.94
2019-04-28T11:39:32.023Z,101498.36
2019-04-28T11:42:02.169Z,101504.31
2019-04-28T11:44:32.294Z,101507.57
2019-04-28T11:47:02.717Z,101504.77
2019-04-28T11:49:32.854Z,101510.04
2019-04-28T11:52:03.391Z,101512.27
2019-04-28T11:54:33.511Z,101511.40
2019-04-28T11:57:03.692Z,101515.66
2019-04-28T11:59:33.839Z,101524.02
2019-04-28T12:02:04.072Z,101511.27
2019-04-28T12:04:34.306Z,101520.33
2019-04-28T12:07:04.660Z,101528.78
2019-04-28T12:09:46.500Z,101515.95
2019-04-28T12:12:32.441Z,101527.92
2019-04-28T12:15:21.590Z,101527.97
2019-04-28T12:18:21.096Z,101520.97
2019-04-28T12:20:51.315Z,101527.25
2019-04-28T12:23:21.442Z,101529.69
2019-04-28T12:25:51.557Z,101537.64
2019-04-28T12:28:21.763Z,101528.71
2019-04-28T12:30:51.884Z,101524.95
2019-04-28T12:33:22.063Z,101524.23
2019-04-28T12:35:52.159Z,101527.12
2019-04-28T12:38:22.286Z,101528.78
2019-04-28T12:40:52.515Z,101533.59
2019-04-28T12:43:22.670Z,101521.98
2019-04-28T12:45:52.777Z,101539.11
2019-04-28T12:48:22.907Z,101532.00
2019-04-28T12:50:53.318Z,101542.53
2019-04-28T12:53:23.611Z,101539.96
2019-04-28T12:55:53.718Z,101541.41
2019-04-28T12:58:23.842Z,101539.25
2019-04-28T13:01:12.953Z,101526.13
2019-04-28T13:03:52.899Z,101548.77
2019-04-28T13:06:23.108Z,101545.82
2019-04-28T13:08:53.594Z,101539.46
2019-04-28T13:11:23.743Z,101546.77
2019-04-28T13:13:54.209Z,101553.55
2019-04-28T13:16:24.332Z,101550.83
2019-04-28T13:18:54.474Z,101545.97
2019-04-28T13:21:24.603Z,101541.30
2019-04-28T13:23:55.180Z,101549.21
2019-04-28T13:26:25.304Z,101539.44
2019-04-28T13:28:55.464Z,101536.80
2019-04-28T13:31:25.630Z,101543.77
2019-04-28T13:33:57.005Z,101538.61
2019-04-28T13:36:27.127Z,101556.97
2019-04-28T13:38:59.598Z,101555.39
2019-04-28T13:41:29.705Z,101551.53
2019-04-28T13:44:01.422Z,101565.14
2019-04-28T13:46:31.536Z,101558.52
2019-04-28T13:49:03.444Z,101556.21
2019-04-28T13:51:33.581Z,101561.64
2019-04-28T13:54:05.480Z,101560.28
2019-04-28T13:56:36.739Z,101559.69
2019-04-28T13:59:14.917Z,101571.98
2019-04-28T14:01:57.896Z,101577.52
2019-04-28T14:04:46.135Z,101574.30
2019-04-28T14:07:16.204Z,101579.11
2019-04-28T14:09:46.383Z,101573.93
2019-04-28T14:12:16.533Z,101581.59
2019-04-28T14:14:46.703Z,101581.95
2019-04-28T14:17:16.791Z,101584.94
2019-04-28T14:19:46.957Z,101576.91
2019-04-28T14:22:17.080Z,101573.94
2019-04-28T14:24:47.209Z,101584.30
2019-04-28T14:27:17.411Z,101592.40
2019-04-28T14:29:47.572Z,101588.95
2019-04-28T14:32:17.703Z,101581.12
2019-04-28T14:34:47.811Z,101576.33
2019-04-28T14:37:17.933Z,101585.63
2019-04-28T14:39:48.157Z,101576.23
2019-04-28T14:42:18.342Z,101590.63
2019-04-28T14:44:48.503Z,101583.45
2019-04-28T14:47:18.671Z,101584.36
2019-04-28T14:49:48.825Z,101584.96
2019-04-28T14:52:19.175Z,101593.72
2019-04-28T14:54:49.457Z,101585.25
2019-04-28T14:57:19.730Z,101585.52
2019-04-28T14:59:49.905Z,101599.71
2019-04-28T15:02:33.096Z,101591.70
2019-04-28T15:05:12.348Z,101602.92
2019-04-28T15:08:07.818Z,101593.28
2019-04-28T15:10:51.845Z,101600.46
2019-04-28T15:13:23.009Z,101611.12
2019-04-28T15:15:53.230Z,101620.58
2019-04-28T15:18:23.277Z,101619.09
2019-04-28T15:20:53.446Z,101622.29
2019-04-28T15:23:23.568Z,101628.31
2019-04-28T15:25:53.865Z,101621.13
2019-04-28T15:28:24.114Z,101627.77
2019-04-28T15:30:54.271Z,101625.01
2019-04-28T15:33:24.420Z,101625.19
2019-04-28T15:35:54.545Z,101626.87
2019-04-28T15:38:24.695Z,101628.84
2019-04-28T15:40:55.224Z,101635.23
2019-04-28T15:43:25.343Z,101634.11
2019-04-28T15:45:55.497Z,101643.45
2019-04-28T15:48:25.621Z,101639.48
2019-04-28T15:50:55.767Z,101648.31
2019-04-28T15:53:25.926Z,101636.45
2019-04-28T15:56:24.243Z,101655.21
2019-04-28T15:58:56.711Z,101651.91
2019-04-28T16:01:26.613Z,101655.88
2019-04-28T16:03:56.822Z,101660.47
2019-04-28T16:06:26.972Z,101672.49
2019-04-28T16:08:57.172Z,101671.08
2019-04-28T16:11:29.010Z,101676.69
2019-04-28T16:13:59.318Z,101675.34
2019-04-28T16:16:29.474Z,101681.41
2019-04-28T16:19:00.784Z,101677.34
2019-04-28T16:21:31.981Z,101686.06
2019-04-28T16:24:02.144Z,101688.14
2019-04-28T16:26:32.652Z,101696.76
2019-04-28T16:29:04.653Z,101697.38
2019-04-28T16:31:35.001Z,101696.50
2019-04-28T16:34:05.234Z,101697.25
2019-04-28T16:36:35.397Z,101703.91
2019-04-28T16:39:07.316Z,101710.58
2019-04-28T16:41:39.025Z,101711.59
2019-04-28T16:44:10.338Z,101714.48
2019-04-28T16:46:40.470Z,101721.23
2019-04-28T16:49:10.576Z,101729.42
2019-04-28T16:51:40.716Z,101723.17
2019-04-28T16:54:10.875Z,101732.13
2019-04-28T16:56:47.225Z,101731.93
2019-04-28T16:59:34.836Z,101733.47
2019-04-28T17:02:23.929Z,101737.39
2019-04-28T17:04:54.059Z,101743.39
2019-04-28T17:07:24.193Z,101741.70
2019-04-28T17:09:54.344Z,101751.03
2019-04-28T17:12:24.569Z,101750.00
2019-04-28T17:14:55.739Z,101754.41
2019-04-28T17:17:25.894Z,101756.65
2019-04-28T17:19:56.170Z,101751.70
2019-04-28T17:22:26.332Z,101757.45
2019-04-28T17:24:56.460Z,101756.80
2019-04-28T17:27:26.581Z,101759.67
2019-04-28T17:29:56.725Z,101772.60
2019-04-28T17:32:27.180Z,101768.35
2019-04-28T17:34:57.536Z,101779.84
2019-04-28T17:37:27.803Z,101777.44
2019-04-28T17:39:57.918Z,101779.35
2019-04-28T17:42:28.203Z,101778.31
2019-04-28T17:44:58.350Z,101782.78
2019-04-28T17:47:28.511Z,101785.83
2019-04-28T17:49:59.748Z,101791.99
2019-04-28T17:52:29.884Z,101795.91
2019-04-28T17:55:00.020Z,101803.59
2019-04-28T17:57:30.466Z,101809.19
2019-04-28T18:00:02.513Z,101809.84
2019-04-28T18:02:59.309Z,101817.61
2019-04-28T18:05:51.862Z,101813.92
2019-04-28T18:08:22.043Z,101816.05
2019-04-28T18:10:52.230Z,101817.48
2019-04-28T18:13:22.592Z,101826.90
2019-04-28T18:16:17.722Z,101819.05
2019-04-28T18:18:51.734Z,101825.16
2019-04-28T18:21:21.909Z,101828.15
2019-04-28T18:23:52.162Z,101833.92
2019-04-28T18:26:22.275Z,101838.83
2019-04-28T18:28:52.397Z,101851.03
2019-04-28T18:31:50.788Z,101857.76
2019-04-28T18:34:39.723Z,101849.30
2019-04-28T18:37:19.907Z,101857.45
2019-04-28T18:40:09.593Z,101863.14
2019-04-28T18:42:44.284Z,101861.27
2019-04-28T18:45:14.991Z,101865.22
2019-04-28T18:47:45.148Z,101869.59
2019-04-28T18:50:15.777Z,101870.72
2019-04-28T18:52:45.903Z,101881.64
2019-04-28T18:55:16.261Z,101881.97
2019-04-28T18:57:46.446Z,101888.63
2019-04-28T19:00:17.982Z,101896.70
2019-04-28T19:02:48.409Z,101898.89
2019-04-28T19:05:19.549Z,101898.10
2019-04-28T19:08:17.794Z,101902.61
2019-04-28T19:11:12.220Z,101909.48
2019-04-28T19:13:47.765Z,101914.73
2019-04-28T19:16:35.562Z,101910.75
2019-04-28T19:19:07.866Z,101917.16
2019-04-28T19:21:38.069Z,101932.73
2019-04-28T19:24:08.207Z,101929.48
2019-04-28T19:26:38.459Z,101930.91
2019-04-28T19:29:08.602Z,101939.41
2019-04-28T19:31:38.788Z,101947.26
2019-04-28T19:34:08.928Z,101951.09
2019-04-28T19:36:39.100Z,101950.40
2019-04-28T19:39:10.556Z,101956.95
2019-04-28T19:41:42.480Z,101960.41
2019-04-28T19:44:12.597Z,101955.11
2019-04-28T19:46:42.824Z,101960.55
2019-04-28T19:49:14.239Z,101966.17
2019-04-28T19:51:44.833Z,101970.67
2019-04-28T19:54:15.933Z,101972.09
2019-04-28T19:56:51.493Z,101972.81
2019-04-28T19:59:43.691Z,101977.05
2019-04-28T20:02:15.609Z,101985.36
2019-04-28T20:04:45.752Z,101988.00
2019-04-28T20:07:17.693Z,101991.18
2019-04-28T20:09:47.830Z,101991.39
2019-04-28T20:12:18.575Z,101983.86
2019-04-28T20:14:50.046Z,101998.50
2019-04-28T20:17:20.257Z,102002.48
2019-04-28T20:19:51.747Z,102002.28
2019-04-28T20:22:22.001Z,102004.84
2019-04-28T20:24:53.545Z,102004.23
2019-04-28T20:27:23.803Z,102005.30
2019-04-28T20:29:54.004Z,102009.86
2019-04-28T20:32:25.195Z,102017.45
2019-04-28T20:34:55.447Z,102012.34
2019-04-28T20:37:39.486Z,102017.22
2019-04-28T20:40:14.865Z,102018.13
2019-04-28T20:42:53.357Z,102021.31
2019-04-28T20:45:23.497Z,102016.33
2019-04-28T20:47:53.641Z,102030.03
2019-04-28T20:50:23.870Z,102029.94
2019-04-28T20:52:54.044Z,102028.79
2019-04-28T20:55:25.070Z,102029.00
2019-04-28T20:57:55.837Z,102028.88
2019-04-28T21:00:26.204Z,102037.31
2019-04-28T21:02:56.462Z,102031.62
2019-04-28T21:05:28.009Z,102044.33
2019-04-28T21:07:58.125Z,102048.35
2019-04-28T21:10:37.579Z,102050.84
2019-04-28T21:13:00.515Z,102052.24
2019-04-28T21:15:30.705Z,102052.42
2019-04-28T21:18:00.887Z,102051.62
2019-04-28T21:20:32.077Z,102056.10
2019-04-28T21:23:03.279Z,102061.11
2019-04-28T21:25:34.874Z,102060.02
2019-04-28T21:28:05.263Z,102065.50
2019-04-28T21:30:35.399Z,102066.61
2019-04-28T21:33:05.654Z,102068.88
2019-04-28T21:35:35.837Z,102078.05
2019-04-28T21:38:05.973Z,102076.60
2019-04-28T21:40:36.664Z,102072.36
2019-04-28T21:43:31.589Z,102076.98
2019-04-28T21:46:20.003Z,102073.84
2019-04-28T21:48:52.529Z,102081.45
2019-04-28T21:51:22.642Z,102083.40
2019-04-28T21:53:52.887Z,102082.41
2019-04-28T21:56:24.584Z,102084.91
2019-04-28T21:58:54.744Z,102088.33
2019-04-28T22:01:25.393Z,102082.07
2019-04-28T22:03:56.793Z,102085.38
2019-04-28T22:06:26.921Z,102091.75
2019-04-28T22:08:57.051Z,102086.55
2019-04-28T22:11:27.251Z,102086.86
2019-04-28T22:13:57.391Z,102086.59
2019-04-28T22:16:27.581Z,102083.41
2019-04-28T22:18:57.748Z,102095.77
2019-04-28T22:21:27.854Z,102092.94
2019-04-28T22:24:06.003Z,102090.21
2019-04-28T22:26:44.739Z,102092.88
2019-04-28T22:29:14.960Z,102098.64
2019-04-28T22:31:48.438Z,102097.36
2019-04-28T22:34:19.100Z,102096.08
2019-04-28T22:36:49.320Z,102093.86
2019-04-28T22:39:19.494Z,102097.52
2019-04-28T22:41:49.575Z,102092.28
2019-04-28T22:44:19.741Z,102093.69
2019-04-28T22:46:50.036Z,102096.41
2019-04-28T22:49:20.360Z,102096.47
2019-04-28T22:51:50.502Z,102094.42
2019-04-28T22:54:39.576Z,102094.63
2019-04-28T22:57:32.308Z,102096.06
2019-04-28T23:00:02.465Z,102093.14
2019-04-28T23:02:34.209Z,102091.95
2019-04-28T23:05:10.346Z,102093.37
2019-04-28T23:07:40.452Z,102089.05
2019-04-28T23:10:10.782Z,102096.24
2019-04-28T23:12:40.908Z,102090.95
2019-04-28T23:15:14.001Z,102096.39
2019-04-28T23:17:43.430Z,102089.41
2019-04-28T23:20:15.490Z,102092.64
2019-04-28T23:22:48.641Z,102080.31
2019-04-28T23:25:18.758Z,102087.16
2019-04-28T23:27:48.870Z,102090.44
2019-04-28T23:30:45.314Z,102092.28
2019-04-28T23:33:15.425Z,102099.47
2019-04-28T23:35:45.594Z,102094.22
2019-04-28T23:38:15.737Z,102096.06
2019-04-28T23:40:55.326Z,102093.45
2019-04-28T23:43:25.441Z,102091.43
2019-04-28T23:45:55.561Z,102091.58
2019-04-28T23:48:25.745Z,102090.03
2019-04-28T23:51:05.650Z,102094.73
2019-04-28T23:53:58.336Z,102096.20
2019-04-28T23:56:28.480Z,102095.02
2019-04-28T23:58:59.663Z,102097.41
